Elk Mountain, WY (82324)

6:10 PM MDT on September 03, 2015 (GMT -0600)
WYDOT | | Change Station
CLOSE
Current Station
Personal Weather Station
Location: Elk Mountain, WY
Elevation: 7619 ft
Nearby Weather Stations

Elev 7619 ft 41.64 °N, 106.29 °W | Updated 25 minutes ago

Overcast
Overcast
56.0 °F
Feels Like 56.0 °F
N
16.0
Wind Variable Wind from ESE
Gusts 25.0 mph

Today
High -- | Low -- °F
--% Chance of Precip.
Yesterday
High -- | Low -- °F
Precip. -- in
6:33 AM 7:35 PM
Waning Gibbous, 65% visible
Pressure 30.10 in
Visibility 10.0 miles
Clouds Scattered Clouds 9000 ft
Mostly Cloudy 11000 ft
Dew Point 50.0 °F
Humidity 80%
Rainfall in
Snow Depth Not available.
UV 1 out of 12
Pollen 9.60 out of 12
Air Quality Not available.
Flu Activity Not available.
METAR KEHY 032355Z AUTO 16022G25KT 10SM SCT090 BKN110 15/08 A3010 RMK AO2
Pressure 30.10 in
Visibility 10.0 miles
Clouds Scattered Clouds 9000 ft
Mostly Cloudy 11000 ft
Dew Point 50.0 °F
Humidity 80%
Rainfall in
Snow Depth Not available.
UV 1 out of 12
Pollen 9.60 out of 12
Air Quality Not available.
Flu Activity Not available.
METAR KEHY 032355Z AUTO 16022G25KT 10SM SCT090 BKN110 15/08 A3010 RMK AO2

10-Day Weather Forecast

×

Almanac

Astronomy

Sep. 03, 2015 Rise Set
Actual Time
Civil Twilight
Nautical Twilight
Astronomical Twilight
Moon
Length of Visible Light
Length of Day
Tomorrow will be .
, % of the Moon is Illuminated

Today's Extremes

State Highs State Lows

Community

WunderPhotos

Upload Photos

1,852,068 photos uploaded!

WunderBlogs® & News

Nearby

Air Quality

  Air Quality AQ Index Pollutant
Not available.

Snow Depth

Station Depth Elevation

Earthquake Activity

City Distance Mag. Time & Date
Minimum magnitude displayed is 2.5.

Coastal Water Temperatures

Place Temperature

Stations

Nearby Weather Stations

Station Location Temp. Windchill Dew Point Humidity Wind Precip. Elev Updated Type